Time;durP1;ratioP1;P1;durP2;ratioP2;P2;SDS_P1;SDS_P2;PMS_P1;PMS_P2;Temp;Humidity;BMP_temperature;BMP_pressure;BME280_temperature;BME280_humidity;BME280_pressure;Samples;Min_cycle;Max_cycle;Signal;HPM_P1;HPM_P2
2022/07/10 00:01:35;;;;;;;;;;;;;;;23.73;55.99;100503.50;7397624;19;1630;-40
2022/07/10 00:04:03;;;;;;;;;;;;;;;23.73;55.99;100487.31;7397255;19;1917;-41
2022/07/10 00:06:31;;;;;;;;;;;;;;;23.82;56.07;100491.72;7398170;19;1560;-40
2022/07/10 00:09:01;;;;;;;;;;;;;;;23.74;55.86;100499.81;7397168;19;1943;-41
2022/07/10 00:11:31;;;;;;;;;;;;;;;23.59;55.97;100480.75;7402171;19;1891;-40
2022/07/10 00:14:20;;;;;;;;;;;;;;;23.68;56.25;100485.13;7407735;19;1634;-41
2022/07/10 00:16:55;;;;;;;;;;;;;;;23.66;56.25;100475.53;7405022;19;1453;-40
2022/07/10 00:19:24;;;;;;;;;;;;;;;23.57;56.25;100488.19;7405789;19;1857;-40
2022/07/10 00:21:56;;;;;;;;;;;;;;;23.53;56.29;100482.28;7406394;19;1646;-40
2022/07/10 00:24:25;;;;;;;;;;;;;;;23.52;56.14;100475.22;7407416;19;1690;-41
2022/07/10 00:26:56;;;;;;;;;;;;;;;23.68;55.99;100485.13;7407097;19;1541;-40
2022/07/10 00:29:25;;;;;;;;;;;;;;;23.59;56.18;100470.81;7407735;19;1971;-40
2022/07/10 00:31:58;;;;;;;;;;;;;;;23.66;56.25;100475.53;7405060;19;1566;-40
2022/07/10 00:34:27;;;;;;;;;;;;;;;23.60;56.52;100479.75;7406040;19;1843;-40
2022/07/10 00:36:59;;;;;;;;;;;;;;;23.54;56.33;100467.81;7407052;19;1563;-41
2022/07/10 00:39:29;;;;;;;;;;;;;;;23.55;56.64;100480.25;7406684;19;1866;-40
2022/07/10 00:42:10;;;;;;;;;;;;;;;23.56;56.70;100470.34;7407433;19;1798;-39
2022/07/10 00:44:48;;;;;;;;;;;;;;;23.59;56.57;100487.00;7406782;19;1956;-40
2022/07/10 00:47:28;;;;;;;;;;;;;;;23.57;56.39;100466.59;7406489;19;1597;-40
2022/07/10 00:49:57;;;;;;;;;;;;;;;23.62;56.28;100469.63;7407685;19;1838;-40
2022/07/10 00:52:27;;;;;;;;;;;;;;;23.57;56.49;100462.03;7407515;19;1456;-40
2022/07/10 00:54:58;;;;;;;;;;;;;;;23.52;56.49;100469.00;7407261;19;1597;-41
2022/07/10 00:57:26;;;;;;;;;;;;;;;23.48;56.62;100475.75;7406563;19;1749;-42
2022/07/10 00:59:55;;;;;;;;;;;;;;;23.47;56.63;100477.59;7404427;19;1881;-40
2022/07/10 01:02:30;;;;;;;;;;;;;;;23.50;56.43;100471.03;7405493;19;1406;-40
2022/07/10 01:05:02;;;;;;;;;;;;;;;23.50;56.27;100471.03;7404406;19;2054;-40
2022/07/10 01:07:36;;;;;;;;;;;;;;;23.58;56.11;100485.31;7406112;19;1811;-40
2022/07/10 01:10:06;;;;;;;;;;;;;;;23.51;56.17;100476.22;7405540;19;1841;-40
2022/07/10 01:12:34;;;;;;;;;;;;;;;23.49;56.44;100485.53;7406542;19;1829;-40
2022/07/10 01:15:03;;;;;;;;;;;;;;;23.50;56.50;100469.16;7406673;19;1845;-41
2022/07/10 01:17:39;;;;;;;;;;;;;;;23.53;56.28;100465.25;7406252;19;1729;-40
2022/07/10 01:20:10;;;;;;;;;;;;;;;23.46;56.37;100461.56;7405434;19;1856;-40
2022/07/10 01:22:45;;;;;;;;;;;;;;;23.39;56.50;100459.56;7405965;19;1696;-41
2022/07/10 01:25:19;;;;;;;;;;;;;;;23.46;56.42;100458.88;7406044;19;1970;-40
2022/07/10 01:27:48;;;;;;;;;;;;;;;23.41;56.32;100467.47;7405981;19;1707;-40
2022/07/10 01:33:01;;;;;;;;;;;;;;;23.45;55.95;100462.59;7402569;19;1874;-40
2022/07/10 01:35:38;;;;;;;;;;;;;;;23.43;56.08;100450.09;7406261;19;1930;-40
2022/07/10 01:38:10;;;;;;;;;;;;;;;23.31;56.02;100454.19;7406175;19;1665;-40
2022/07/10 01:40:46;;;;;;;;;;;;;;;23.19;56.04;100459.09;7402278;19;1857;-40
2022/07/10 01:43:17;;;;;;;;;;;;;;;23.20;56.11;100459.94;7405448;19;1706;-40
2022/07/10 01:45:46;;;;;;;;;;;;;;;23.18;56.01;100462.81;7405237;19;1947;-41
2022/07/10 01:48:17;;;;;;;;;;;;;;;23.25;56.04;100456.72;7404565;19;2017;-40
2022/07/10 01:50:46;;;;;;;;;;;;;;;23.26;56.15;100482.69;7404474;19;1921;-40
2022/07/10 01:53:19;;;;;;;;;;;;;;;23.21;56.20;100456.22;7406024;19;1811;-39
2022/07/10 01:55:50;;;;;;;;;;;;;;;23.29;56.01;100453.50;7405444;19;1853;-40
2022/07/10 01:58:26;;;;;;;;;;;;;;;23.28;56.01;100445.56;7403814;19;2050;-40
2022/07/10 02:00:54;;;;;;;;;;;;;;;23.25;56.02;100446.78;7392943;19;3429;-60
2022/07/10 02:06:03;;;;;;;;;;;;;;;23.28;55.98;100445.56;7406736;19;1256;-60
2022/07/10 02:08:34;;;;;;;;;;;;;;;23.25;55.93;100446.78;7408454;19;1457;-60
2022/07/10 02:11:03;;;;;;;;;;;;;;;23.27;56.10;100433.94;7407083;19;1524;-57
2022/07/10 02:13:31;;;;;;;;;;;;;;;23.25;56.20;100452.16;7406545;19;1510;-57
2022/07/10 02:16:00;;;;;;;;;;;;;;;23.26;55.95;100445.78;7407663;19;1532;-57
2022/07/10 02:18:29;;;;;;;;;;;;;;;23.27;56.42;100443.91;7407020;19;1278;-57
2022/07/10 02:20:57;;;;;;;;;;;;;;;23.33;56.03;100446.75;7405035;19;1859;-57
2022/07/10 02:23:26;;;;;;;;;;;;;;;23.33;56.29;100438.66;7407968;19;1520;-57
2022/07/10 02:25:57;;;;;;;;;;;;;;;23.30;56.44;100443.56;7407414;19;1530;-57
2022/07/10 02:28:25;;;;;;;;;;;;;;;23.21;56.30;100440.03;7405747;19;1631;-57
2022/07/10 02:30:53;;;;;;;;;;;;;;;23.13;56.20;100431.97;7405825;19;1341;-58
2022/07/10 02:33:22;;;;;;;;;;;;;;;23.23;56.05;100443.41;7403916;19;1568;-57
2022/07/10 02:35:50;;;;;;;;;;;;;;;23.19;55.86;100444.75;7405177;19;1562;-58
2022/07/10 02:38:19;;;;;;;;;;;;;;;23.28;55.78;100453.66;7405362;19;1541;-55
2022/07/10 02:40:47;;;;;;;;;;;;;;;23.23;56.28;100441.53;7405432;19;1855;-62
2022/07/10 02:43:18;;;;;;;;;;;;;;;23.03;56.46;100438.38;7406470;19;1415;-62
2022/07/10 02:45:46;;;;;;;;;;;;;;;23.02;56.81;100452.88;7407293;19;1529;-66
2022/07/10 02:48:17;;;;;;;;;;;;;;;23.16;56.32;100447.81;7406191;19;1517;-63
2022/07/10 02:50:46;;;;;;;;;;;;;;;23.16;56.64;100442.41;7406758;19;1576;-64
2022/07/10 02:53:14;;;;;;;;;;;;;;;23.16;56.31;100450.50;7407566;19;1534;-64
2022/07/10 02:55:43;;;;;;;;;;;;;;;23.15;56.48;100448.81;7406353;19;1636;-54
2022/07/10 02:58:12;;;;;;;;;;;;;;;23.23;56.60;100446.94;7405999;19;1732;-65
2022/07/10 03:00:43;;;;;;;;;;;;;;;23.20;56.50;100452.69;7405405;19;1855;-54
2022/07/10 03:03:11;;;;;;;;;;;;;;;23.20;56.44;100451.84;7405846;19;1640;-54
2022/07/10 03:05:40;;;;;;;;;;;;;;;23.17;56.58;100461.09;7405280;19;1506;-55
2022/07/10 03:08:08;;;;;;;;;;;;;;;23.13;57.00;100443.59;7405937;19;1513;-55
2022/07/10 03:10:36;;;;;;;;;;;;;;;23.19;56.79;100444.75;7405347;19;1515;-64
2022/07/10 03:13:05;;;;;;;;;;;;;;;23.13;56.90;100454.38;7406213;19;1551;-60
2022/07/10 03:15:33;;;;;;;;;;;;;;;23.17;56.82;100460.28;7405676;19;1345;-55
2022/07/10 03:18:04;;;;;;;;;;;;;;;23.14;57.16;100434.50;7406308;19;1573;-55
2022/07/10 03:20:33;;;;;;;;;;;;;;;23.17;57.13;100442.22;7404520;19;1849;-55
2022/07/10 03:23:01;;;;;;;;;;;;;;;23.22;56.84;100436.34;7406088;19;1584;-55
2022/07/10 03:25:29;;;;;;;;;;;;;;;23.25;56.91;100454.88;7403758;19;1554;-55
2022/07/10 03:27:58;;;;;;;;;;;;;;;23.20;57.06;100436.50;7405876;19;1513;-56
2022/07/10 03:30:26;;;;;;;;;;;;;;;23.18;57.26;100443.09;7404692;19;1428;-63
2022/07/10 03:32:54;;;;;;;;;;;;;;;23.13;57.28;100431.97;7405626;19;1646;-64
2022/07/10 03:35:25;;;;;;;;;;;;;;;23.13;57.33;100448.16;7405201;19;1588;-64
2022/07/10 03:37:54;;;;;;;;;;;;;;;23.22;56.92;100433.66;7405776;19;1600;-55
2022/07/10 03:40:22;;;;;;;;;;;;;;;23.21;57.28;100426.56;7403262;19;1855;-55
2022/07/10 03:42:51;;;;;;;;;;;;;;;23.31;56.86;100429.06;7404729;19;1513;-55
2022/07/10 03:45:19;;;;;;;;;;;;;;;23.37;57.01;100428.38;7402396;19;1509;-54
2022/07/10 03:47:47;;;;;;;;;;;;;;;23.31;56.93;100421.81;7405156;19;1552;-61
2022/07/10 03:50:16;;;;;;;;;;;;;;;23.37;57.33;100431.91;7404243;19;1283;-55
2022/07/10 03:52:47;;;;;;;;;;;;;;;23.34;57.52;100434.97;7404284;19;1461;-58
2022/07/10 03:55:15;;;;;;;;;;;;;;;23.36;57.47;100429.41;7403342;19;1428;-58
2022/07/10 03:57:54;;;;;;;;;;;;;;;23.22;57.69;100420.16;7402367;19;1207;-57
2022/07/10 04:00:24;;;;;;;;;;;;;;;23.29;57.82;100425.69;7403028;19;1860;-58
2022/07/10 04:02:57;;;;;;;;;;;;;;;23.28;58.15;100415.91;7401928;19;1500;-59
2022/07/10 04:05:26;;;;;;;;;;;;;;;23.36;58.18;100445.59;7403201;19;1296;-54
2022/07/10 04:07:58;;;;;;;;;;;;;;;23.36;58.08;100459.91;7403934;19;1307;-59
2022/07/10 04:10:26;;;;;;;;;;;;;;;23.34;58.51;100448.44;7403931;19;1551;-59
2022/07/10 04:12:55;;;;;;;;;;;;;;;23.41;58.04;100435.94;7403997;19;1745;-63
2022/07/10 04:15:24;;;;;;;;;;;;;;;23.47;58.06;100441.66;7401968;19;1620;-54
2022/07/10 04:17:52;;;;;;;;;;;;;;;23.46;58.65;100456.16;7402842;19;1431;-57
2022/07/10 04:20:21;;;;;;;;;;;;;;;23.35;58.63;100449.28;7403653;19;1846;-58
2022/07/10 04:22:50;;;;;;;;;;;;;;;23.29;58.76;100463.47;7402940;19;1544;-57
2022/07/10 04:25:21;;;;;;;;;;;;;;;23.35;58.70;100452.81;7399648;19;1359;-58
2022/07/10 04:27:49;;;;;;;;;;;;;;;23.41;58.73;100456.69;7402181;19;1336;-57
2022/07/10 04:30:17;;;;;;;;;;;;;;;23.37;58.84;100456.19;7402471;19;1442;-58
2022/07/10 04:32:46;;;;;;;;;;;;;;;23.41;58.86;100457.53;7400600;19;1753;-58
2022/07/10 04:35:15;;;;;;;;;;;;;;;23.43;58.53;100441.16;7403689;19;1695;-58
2022/07/10 04:37:43;;;;;;;;;;;;;;;23.45;58.73;100457.19;7402955;19;1604;-58
2022/07/10 04:40:12;;;;;;;;;;;;;;;23.38;58.94;100447.09;7403763;19;1855;-58
2022/07/10 04:42:43;;;;;;;;;;;;;;;23.35;58.99;100470.88;7402391;19;1527;-57
2022/07/10 04:45:12;;;;;;;;;;;;;;;23.33;59.15;100460.25;7404064;19;1323;-57
2022/07/10 04:47:40;;;;;;;;;;;;;;;23.27;59.24;100455.53;7402613;19;1585;-58
2022/07/10 04:50:10;;;;;;;;;;;;;;;23.26;59.38;100464.66;7403855;19;1519;-58
2022/07/10 04:52:38;;;;;;;;;;;;;;;23.29;59.52;100461.59;7401185;19;1752;-58
2022/07/10 04:55:07;;;;;;;;;;;;;;;23.41;59.09;100487.22;7403663;19;1521;-55
2022/07/10 04:57:36;;;;;;;;;;;;;;;23.42;59.14;100461.91;7406166;19;1727;-56
2022/07/10 05:00:07;;;;;;;;;;;;;;;23.39;59.14;100454.16;7409566;19;1849;-54
2022/07/10 05:02:36;;;;;;;;;;;;;;;23.51;58.99;100446.53;7404854;19;1556;-57
2022/07/10 05:05:04;;;;;;;;;;;;;;;23.55;58.84;100469.47;7407894;19;1688;-58
2022/07/10 05:07:32;;;;;;;;;;;;;;;23.55;59.01;100460.53;7409593;19;1406;-57
2022/07/10 05:10:01;;;;;;;;;;;;;;;23.55;59.46;100464.06;7409309;19;1761;-59
2022/07/10 05:12:29;;;;;;;;;;;;;;;23.47;59.66;100460.56;7408565;19;1347;-57
2022/07/10 05:14:59;;;;;;;;;;;;;;;23.55;59.44;100460.53;7410275;19;1402;-58
2022/07/10 05:17:31;;;;;;;;;;;;;;;23.54;59.53;100469.66;7410611;19;1030;-58
2022/07/10 05:20:00;;;;;;;;;;;;;;;23.51;59.35;100464.59;7409116;19;1727;-57
2022/07/10 05:22:30;;;;;;;;;;;;;;;23.59;59.26;100464.56;7403795;19;1857;-58
2022/07/10 05:24:58;;;;;;;;;;;;;;;23.53;59.44;100459.88;7407243;19;1535;-58
2022/07/10 05:27:26;;;;;;;;;;;;;;;23.57;59.50;100456.63;7408861;19;1279;-59
2022/07/10 05:29:55;;;;;;;;;;;;;;;23.54;59.84;100456.16;7407903;19;1653;-59
2022/07/10 05:32:25;;;;;;;;;;;;;;;23.62;59.77;100458.84;7406543;19;1704;-57
2022/07/10 05:34:55;;;;;;;;;;;;;;;23.66;59.28;100448.53;7405462;19;1890;-61
2022/07/10 05:37:24;;;;;;;;;;;;;;;23.63;59.79;100461.38;7403251;19;1553;-63
2022/07/10 05:39:52;;;;;;;;;;;;;;;23.61;59.84;100481.44;7406325;19;1430;-56
2022/07/10 05:42:20;;;;;;;;;;;;;;;23.65;60.02;100473.84;7403948;19;1857;-58
2022/07/10 05:44:49;;;;;;;;;;;;;;;23.66;59.57;100465.56;7403936;19;1537;-52
2022/07/10 05:47:17;;;;;;;;;;;;;;;23.61;60.16;100457.13;7404929;19;1378;-56
2022/07/10 05:49:45;;;;;;;;;;;;;;;23.58;60.30;100461.03;7406230;19;1218;-59
2022/07/10 05:52:16;;;;;;;;;;;;;;;23.68;60.15;100474.34;7407152;19;1431;-53
2022/07/10 05:54:44;;;;;;;;;;;;;;;23.58;60.72;100450.25;7406570;19;1304;-55
2022/07/10 05:57:13;;;;;;;;;;;;;;;23.77;60.21;100465.22;7408586;19;1347;-56
2022/07/10 05:59:42;;;;;;;;;;;;;;;23.63;60.41;100441.59;7407064;19;1277;-55
2022/07/10 06:02:10;;;;;;;;;;;;;;;23.69;60.28;100449.00;7406176;19;1857;-58
2022/07/10 06:04:39;;;;;;;;;;;;;;;23.68;60.47;100447.34;7405477;19;1651;-58
2022/07/10 06:07:07;;;;;;;;;;;;;;;23.78;60.14;100453.41;7404956;19;1286;-58
2022/07/10 06:09:38;;;;;;;;;;;;;;;23.81;60.02;100457.59;7403805;19;1244;-57
2022/07/10 06:12:07;;;;;;;;;;;;;;;23.77;60.16;100451.72;7408026;19;1409;-57
2022/07/10 06:14:35;;;;;;;;;;;;;;;23.80;60.26;100456.78;7407190;19;1648;-57
2022/07/10 06:17:04;;;;;;;;;;;;;;;23.86;59.94;100455.25;7407851;19;1616;-57
2022/07/10 06:19:32;;;;;;;;;;;;;;;23.91;59.88;100452.84;7407925;19;1617;-57
2022/07/10 06:24:43;;;;;;;;;;;;;;;23.98;59.64;100453.81;7407359;19;1601;-58
2022/07/10 06:27:12;;;;;;;;;;;;;;;23.97;59.81;100457.56;7406666;19;1735;-58
2022/07/10 06:29:40;;;;;;;;;;;;;;;23.94;59.96;100446.25;7404805;19;1522;-58
2022/07/10 06:32:09;;;;;;;;;;;;;;;23.85;60.42;100455.41;7403570;19;1544;-58
2022/07/10 06:34:38;;;;;;;;;;;;;;;23.87;60.66;100456.06;7405759;19;1286;-59
2022/07/10 06:37:06;;;;;;;;;;;;;;;23.88;60.27;100455.06;7405614;19;1456;-58
2022/07/10 06:39:36;;;;;;;;;;;;;;;23.89;60.05;100459.44;7406884;19;1399;-56
2022/07/10 06:42:07;;;;;;;;;;;;;;;23.92;60.03;100449.13;7404701;19;1853;-57
2022/07/10 06:44:36;;;;;;;;;;;;;;;23.97;60.03;100448.59;7405148;19;1724;-58
2022/07/10 06:49:46;;;;;;;;;;;;;;;24.00;59.84;100449.09;7406158;19;1272;-58
2022/07/10 06:52:15;;;;;;;;;;;;;;;24.06;59.85;100441.31;7405858;19;1271;-59
2022/07/10 06:54:44;;;;;;;;;;;;;;;24.05;59.85;100442.31;7404905;19;1747;-60
2022/07/10 06:57:15;;;;;;;;;;;;;;;23.99;59.66;100442.03;7406393;19;1549;-58
2022/07/10 06:59:43;;;;;;;;;;;;;;;24.04;60.41;100448.75;7406069;19;1522;-57
2022/07/10 07:02:12;;;;;;;;;;;;;;;24.08;60.03;100459.00;7404485;19;1854;-59
2022/07/10 07:04:40;;;;;;;;;;;;;;;24.08;60.13;100452.78;7402517;19;1496;-63
2022/07/10 07:07:09;;;;;;;;;;;;;;;24.10;60.31;100440.78;7405515;19;1592;-52
2022/07/10 07:09:37;;;;;;;;;;;;;;;24.12;60.04;100433.31;7406066;19;1618;-58
2022/07/10 07:12:06;;;;;;;;;;;;;;;24.13;60.04;100445.84;7406378;19;1524;-57
2022/07/10 07:14:37;;;;;;;;;;;;;;;24.15;59.97;100446.50;7405470;19;1813;-57
2022/07/10 07:17:09;;;;;;;;;;;;;;;24.19;59.90;100437.00;7406105;19;1440;-57
2022/07/10 07:24:58;;;;;;;;;;;;;;;24.26;59.59;100449.81;7405524;19;1708;-58
2022/07/10 07:27:27;;;;;;;;;;;;;;;24.24;59.58;100441.88;7403884;19;1631;-57
2022/07/10 07:29:57;;;;;;;;;;;;;;;24.21;59.55;100434.09;7405186;19;1228;-57
2022/07/10 07:32:26;;;;;;;;;;;;;;;24.27;59.22;100435.25;7404906;19;1806;-58
2022/07/10 07:34:54;;;;;;;;;;;;;;;24.28;59.27;100428.84;7404080;19;1789;-58
2022/07/10 07:37:23;;;;;;;;;;;;;;;24.25;58.98;100437.31;7404537;19;1573;-57
2022/07/10 07:39:52;;;;;;;;;;;;;;;24.24;58.59;100419.44;7404617;19;1643;-58
2022/07/10 07:42:20;;;;;;;;;;;;;;;24.27;58.37;100429.84;7404775;19;1859;-57
2022/07/10 07:44:48;;;;;;;;;;;;;;;24.31;58.16;100425.78;7406243;19;925;-57
2022/07/10 07:47:19;;;;;;;;;;;;;;;24.31;57.82;100432.03;7405387;19;1441;-57
2022/07/10 07:49:47;;;;;;;;;;;;;;;24.33;57.05;100432.72;7404083;19;1672;-58
2022/07/10 07:52:16;;;;;;;;;;;;;;;24.29;57.55;100417.88;7403894;19;1493;-58
2022/07/10 07:54:45;;;;;;;;;;;;;;;24.31;57.38;100423.06;7404352;19;1376;-58
2022/07/10 07:57:13;;;;;;;;;;;;;;;24.33;57.06;100413.78;7405602;19;1154;-58
2022/07/10 07:59:42;;;;;;;;;;;;;;;24.32;56.20;100417.50;7404035;19;1770;-57
2022/07/10 08:02:10;;;;;;;;;;;;;;;24.35;56.17;100437.91;7402211;19;1855;-58
2022/07/10 08:04:41;;;;;;;;;;;;;;;24.37;56.61;100425.94;7402660;19;1475;-58
2022/07/10 08:07:09;;;;;;;;;;;;;;;24.35;55.66;100416.28;7404496;19;1520;-58
2022/07/10 08:09:37;;;;;;;;;;;;;;;24.33;55.71;100421.91;7402982;19;1304;-58
2022/07/10 08:12:06;;;;;;;;;;;;;;;24.38;55.75;100407.84;7402811;19;1761;-58
2022/07/10 08:14:34;;;;;;;;;;;;;;;24.36;55.70;100415.28;7402423;19;1794;-57
2022/07/10 08:17:03;;;;;;;;;;;;;;;24.35;55.91;100410.88;7403187;19;1387;-57
2022/07/10 08:19:31;;;;;;;;;;;;;;;24.32;55.46;100416.66;7404757;19;1493;-57
2022/07/10 08:22:02;;;;;;;;;;;;;;;24.36;55.62;100410.72;7401641;19;1845;-57
2022/07/10 08:24:31;;;;;;;;;;;;;;;24.38;55.91;100424.06;7402985;19;1296;-58
2022/07/10 08:26:59;;;;;;;;;;;;;;;24.37;56.01;100420.53;7404343;19;1630;-58
2022/07/10 08:29:28;;;;;;;;;;;;;;;24.36;56.45;100413.41;7400847;19;1945;-58
2022/07/10 08:31:56;;;;;;;;;;;;;;;24.38;56.18;100415.94;7404310;19;1269;-57
2022/07/10 08:34:24;;;;;;;;;;;;;;;24.31;57.85;100432.03;7409897;19;1414;-57
2022/07/10 08:36:53;;;;;;;;;;;;;;;23.39;59.49;100437.97;7409468;19;1489;-57
2022/07/10 08:39:24;;;;;;;;;;;;;;;22.63;59.61;100437.34;7411703;19;968;-58
2022/07/10 08:41:52;;;;;;;;;;;;;;;22.27;59.15;100438.66;7406155;19;1842;-58
2022/07/10 08:44:21;;;;;;;;;;;;;;;23.25;57.80;100443.25;7409175;19;1450;-58
2022/07/10 08:46:49;;;;;;;;;;;;;;;23.73;57.46;100436.84;7411242;19;1338;-58
2022/07/10 08:49:19;;;;;;;;;;;;;;;23.97;57.20;100435.09;7409932;19;1654;-58
2022/07/10 08:51:50;;;;;;;;;;;;;;;24.08;56.72;100429.31;7409195;19;1576;-58
2022/07/10 08:54:19;;;;;;;;;;;;;;;24.15;57.04;100427.59;7410895;19;1358;-58
2022/07/10 08:56:50;;;;;;;;;;;;;;;24.18;57.09;100421.81;7408541;19;1781;-57
2022/07/10 08:59:19;;;;;;;;;;;;;;;23.25;59.74;100419.78;7409756;19;1486;-58
2022/07/10 09:01:48;;;;;;;;;;;;;;;22.38;59.91;100428.41;7407254;19;1843;-57
2022/07/10 09:04:18;;;;;;;;;;;;;;;22.04;59.05;100436.50;7408665;19;1537;-58
2022/07/10 09:06:47;;;;;;;;;;;;;;;21.76;58.12;100434.06;7408243;19;1527;-57
2022/07/10 09:09:16;;;;;;;;;;;;;;;21.77;56.83;100433.06;7409135;19;1753;-57
2022/07/10 09:11:44;;;;;;;;;;;;;;;21.76;55.89;100423.28;7409044;19;1372;-57
2022/07/10 09:14:17;;;;;;;;;;;;;;;21.84;56.11;100430.56;7409146;19;1543;-57
2022/07/10 09:16:47;;;;;;;;;;;;;;;21.83;56.56;100428.88;7410013;19;1464;-56
2022/07/10 09:19:19;;;;;;;;;;;;;;;21.97;56.81;100416.66;7408459;19;1717;-59
2022/07/10 09:21:48;;;;;;;;;;;;;;;22.06;57.39;100418.34;7399128;19;1850;-57
2022/07/10 09:24:19;;;;;;;;;;;;;;;22.15;57.51;100411.97;7404497;19;1674;-57
2022/07/10 09:26:51;;;;;;;;;;;;;;;22.06;58.11;100423.72;7403175;19;1321;-56
2022/07/10 09:29:22;;;;;;;;;;;;;;;22.04;58.00;100409.59;7403807;19;1381;-57
2022/07/10 09:31:50;;;;;;;;;;;;;;;21.84;58.81;100417.97;7402771;19;1392;-56
2022/07/10 09:34:19;;;;;;;;;;;;;;;22.05;58.14;100411.28;7404322;19;1313;-58
2022/07/10 09:36:47;;;;;;;;;;;;;;;22.08;58.79;100418.19;7403323;19;1371;-56
2022/07/10 09:39:16;;;;;;;;;;;;;;;22.03;58.36;100414.13;7405936;19;943;-56
2022/07/10 09:41:44;;;;;;;;;;;;;;;22.12;58.42;100416.84;7403338;19;1865;-58
2022/07/10 09:44:13;;;;;;;;;;;;;;;22.03;58.08;100411.44;7405435;19;1169;-59
2022/07/10 09:46:44;;;;;;;;;;;;;;;22.12;58.98;100398.00;7408666;19;1146;-66
2022/07/10 09:49:13;;;;;;;;;;;;;;;22.51;60.52;100409.03;7407923;19;1312;-57
2022/07/10 09:51:42;;;;;;;;;;;;;;;22.59;61.82;100410.91;7407251;19;1339;-61
2022/07/10 09:54:11;;;;;;;;;;;;;;;22.73;61.75;100407.53;7408076;19;1349;-57
2022/07/10 09:56:43;;;;;;;;;;;;;;;22.88;62.20;100412.22;7405937;19;1329;-58
2022/07/10 09:59:12;;;;;;;;;;;;;;;22.89;62.99;100406.66;7406638;19;1235;-57
2022/07/10 10:01:45;;;;;;;;;;;;;;;23.05;62.49;100399.63;7404563;19;1859;-61
2022/07/10 10:04:14;;;;;;;;;;;;;;;23.06;63.88;100403.97;7405517;19;1462;-58
2022/07/10 10:06:44;;;;;;;;;;;;;;;23.17;63.65;100407.16;7407129;19;1386;-58
2022/07/10 10:09:15;;;;;;;;;;;;;;;23.09;64.53;100393.69;7399263;19;1446;-57
2022/07/10 10:11:46;;;;;;;;;;;;;;;23.14;64.39;100387.78;7398287;19;1343;-57
2022/07/10 10:14:15;;;;;;;;;;;;;;;22.92;62.91;100387.47;7399253;19;1391;-57
2022/07/10 10:16:47;;;;;;;;;;;;;;;22.76;62.16;100380.25;7400864;19;1213;-57
2022/07/10 10:21:59;;;;;;;;;;;;;;;22.62;63.48;100376.38;7399221;19;1848;-59
2022/07/10 10:24:28;;;;;;;;;;;;;;;22.59;63.99;100379.38;7401687;19;1597;-58
2022/07/10 10:26:56;;;;;;;;;;;;;;;22.61;64.28;100366.59;7401740;19;1489;-56
2022/07/10 10:29:25;;;;;;;;;;;;;;;22.63;64.29;100367.25;7401563;19;1635;-56
2022/07/10 10:31:56;;;;;;;;;;;;;;;22.64;64.83;100350.09;7401217;19;1190;-57
2022/07/10 10:34:40;;;;;;;;;;;;;;;22.77;64.61;100351.41;7402362;19;1615;-57
2022/07/10 10:37:10;;;;;;;;;;;;;;;22.82;64.35;100359.84;7402030;19;1258;-56
2022/07/10 10:39:53;;;;;;;;;;;;;;;22.82;64.84;100351.75;7403234;19;1584;-62
2022/07/10 10:42:34;;;;;;;;;;;;;;;22.95;64.33;100349.34;7401719;19;1866;-57
2022/07/10 10:45:17;;;;;;;;;;;;;;;22.97;64.54;100354.59;7402840;19;1403;-56
2022/07/10 10:48:01;;;;;;;;;;;;;;;22.88;64.89;100348.38;7400787;19;1533;-56
2022/07/10 10:50:45;;;;;;;;;;;;;;;22.98;64.37;100356.28;7400903;19;1270;-58
2022/07/10 10:53:17;;;;;;;;;;;;;;;22.71;64.15;100346.72;7400284;19;1228;-57
2022/07/10 10:56:00;;;;;;;;;;;;;;;22.51;63.94;100354.31;7400671;19;1573;-58
2022/07/10 10:58:29;;;;;;;;;;;;;;;22.56;64.53;100354.63;7398306;19;1375;-57
2022/07/10 11:01:05;;;;;;;;;;;;;;;22.62;64.70;100341.34;7399917;19;1234;-58
2022/07/10 11:03:33;;;;;;;;;;;;;;;22.64;65.35;100347.41;7398560;19;1866;-58
2022/07/10 11:06:06;;;;;;;;;;;;;;;22.71;65.30;100352.94;7400059;19;1529;-58
2022/07/10 11:08:39;;;;;;;;;;;;;;;22.68;65.38;100342.50;7401907;19;1639;-57
2022/07/10 11:11:22;;;;;;;;;;;;;;;22.72;65.50;100333.06;7401116;19;1538;-56
2022/07/10 11:13:52;;;;;;;;;;;;;;;22.81;65.05;100341.97;7401030;19;1516;-58
2022/07/10 11:16:20;;;;;;;;;;;;;;;22.89;64.72;100328.47;7400983;19;1633;-58
2022/07/10 11:18:54;;;;;;;;;;;;;;;22.82;65.33;100319.41;7399506;19;1649;-57
2022/07/10 11:21:27;;;;;;;;;;;;;;;22.87;64.94;100318.88;7399877;19;1311;-58
2022/07/10 11:24:00;;;;;;;;;;;;;;;23.01;64.66;100305.53;7401049;19;1870;-57
2022/07/10 11:26:37;;;;;;;;;;;;;;;22.99;64.98;100318.34;7405146;19;1514;-58
2022/07/10 11:29:07;;;;;;;;;;;;;;;22.87;64.60;100303.53;7402107;19;1281;-58
2022/07/10 11:31:39;;;;;;;;;;;;;;;22.88;65.82;100310.63;7403193;19;1880;-56
2022/07/10 11:34:08;;;;;;;;;;;;;;;23.10;65.66;100297.44;7404415;19;1519;-58
2022/07/10 11:36:41;;;;;;;;;;;;;;;23.27;64.68;100293.66;7404386;19;1174;-57
2022/07/10 11:39:12;;;;;;;;;;;;;;;23.58;63.74;100298.25;7406043;19;1355;-57
2022/07/10 11:41:46;;;;;;;;;;;;;;;23.71;63.09;100298.50;7402639;19;1763;-58
2022/07/10 11:44:16;;;;;;;;;;;;;;;23.78;62.61;100299.50;7402080;19;1838;-57
2022/07/10 11:46:45;;;;;;;;;;;;;;;23.80;62.55;100286.66;7403543;19;1313;-56
2022/07/10 11:49:14;;;;;;;;;;;;;;;23.86;62.22;100281.59;7403376;19;1771;-64
2022/07/10 11:51:45;;;;;;;;;;;;;;;23.87;62.27;100283.25;7398151;19;1426;-58
2022/07/10 11:54:15;;;;;;;;;;;;;;;23.87;62.03;100270.56;7402104;19;1624;-58
2022/07/10 11:56:44;;;;;;;;;;;;;;;23.89;62.62;100281.22;7403195;19;1601;-56
2022/07/10 11:59:14;;;;;;;;;;;;;;;23.96;62.54;100272.22;7404101;19;1553;-58
2022/07/10 12:01:44;;;;;;;;;;;;;;;23.96;61.96;100268.69;7398396;19;1652;-57
2022/07/10 12:04:13;;;;;;;;;;;;;;;23.99;61.66;100254.78;7398733;19;1867;-57
2022/07/10 12:06:42;;;;;;;;;;;;;;;24.04;61.33;100292.09;7399900;19;1299;-56
2022/07/10 12:09:14;;;;;;;;;;;;;;;24.02;61.88;100266.09;7409088;19;1166;-57
2022/07/10 12:11:42;;;;;;;;;;;;;;;24.06;61.87;100265.72;7406308;19;1676;-55
2022/07/10 12:14:12;;;;;;;;;;;;;;;24.08;61.62;100272.63;7408342;19;1408;-58
2022/07/10 12:16:42;;;;;;;;;;;;;;;24.12;61.41;100265.00;7404068;19;1369;-54
2022/07/10 12:19:11;;;;;;;;;;;;;;;24.12;61.37;100260.44;7406859;19;1440;-53
2022/07/10 12:21:39;;;;;;;;;;;;;;;24.11;61.42;100274.94;7407586;19;1379;-57
2022/07/10 12:24:09;;;;;;;;;;;;;;;24.09;61.50;100271.59;7405712;19;1857;-57
2022/07/10 12:26:41;;;;;;;;;;;;;;;24.08;61.27;100272.63;7407018;19;1656;-57
2022/07/10 12:29:14;;;;;;;;;;;;;;;24.12;61.49;100263.13;7406064;19;1235;-57
2022/07/10 12:31:45;;;;;;;;;;;;;;;24.14;61.45;100258.41;7406758;19;1380;-57
2022/07/10 12:34:13;;;;;;;;;;;;;;;24.14;61.35;100258.41;7407137;19;1296;-57
2022/07/10 12:36:46;;;;;;;;;;;;;;;24.12;61.20;100246.94;7407083;19;1375;-57
2022/07/10 12:39:14;;;;;;;;;;;;;;;24.17;61.12;100265.28;7408403;19;1884;-57
2022/07/10 12:42:02;;;;;;;;;;;;;;;24.14;61.15;100255.69;7406452;19;1771;-57
2022/07/10 12:44:37;;;;;;;;;;;;;;;24.18;60.81;100248.91;7404201;19;1853;-57
2022/07/10 12:47:08;;;;;;;;;;;;;;;24.18;61.02;100245.38;7406391;19;1464;-57
2022/07/10 12:49:51;;;;;;;;;;;;;;;24.19;60.83;100242.50;7405837;19;1746;-56
2022/07/10 12:52:23;;;;;;;;;;;;;;;24.18;60.94;100254.31;7405506;19;1436;-57
2022/07/10 12:55:07;;;;;;;;;;;;;;;24.20;60.78;100224.41;7405916;19;1318;-58
2022/07/10 12:57:47;;;;;;;;;;;;;;;24.19;60.77;100228.13;7406395;19;1296;-57
2022/07/10 13:03:03;;;;;;;;;;;;;;;24.22;60.85;100222.38;7431603;19;1641;-41
2022/07/10 13:05:33;;;;;;;;;;;;;;;24.20;60.58;100216.31;7434170;19;1474;-40
2022/07/10 13:08:10;;;;;;;;;;;;;;;24.19;60.68;100212.78;7433165;19;1568;-42
2022/07/10 13:10:39;;;;;;;;;;;;;;;24.19;60.83;100218.19;7434464;19;1605;-39
2022/07/10 13:13:07;;;;;;;;;;;;;;;24.19;60.77;100212.78;7431774;19;1698;-43
2022/07/10 13:15:39;;;;;;;;;;;;;;;24.18;60.90;100219.19;7432788;19;1622;-40
2022/07/10 13:18:14;;;;;;;;;;;;;;;24.15;60.86;100227.66;7435226;19;1658;-40
2022/07/10 13:20:43;;;;;;;;;;;;;;;24.11;60.96;100236.31;7433479;19;1850;-39
2022/07/10 13:23:11;;;;;;;;;;;;;;;24.11;60.44;100222.78;7432842;19;1562;-39
2022/07/10 13:25:40;;;;;;;;;;;;;;;24.06;60.54;100226.06;7431552;19;1810;-39